sensor_id;sensor_type;location;lat;lon;timestamp;pressure;altitude;pressure_sealevel;temperature;humidity
66703;BME280;60933;46.398;-63.798;2023-03-13T00:00:55;101852.47;;;-3.37;87.82
66703;BME280;60933;46.398;-63.798;2023-03-13T00:03:21;101859.03;;;-3.41;88.34
66703;BME280;60933;46.398;-63.798;2023-03-13T00:05:47;101861.38;;;-3.44;88.40
66703;BME280;60933;46.398;-63.798;2023-03-13T00:08:13;101852.78;;;-3.47;87.94
66703;BME280;60933;46.398;-63.798;2023-03-13T00:10:40;101860.31;;;-3.49;87.97
66703;BME280;60933;46.398;-63.798;2023-03-13T00:13:07;101867.69;;;-3.52;88.24
66703;BME280;60933;46.398;-63.798;2023-03-13T00:15:33;101877.72;;;-3.54;88.89
66703;BME280;60933;46.398;-63.798;2023-03-13T00:17:59;101875.84;;;-3.58;88.86
66703;BME280;60933;46.398;-63.798;2023-03-13T00:20:26;101875.06;;;-3.57;88.90
66703;BME280;60933;46.398;-63.798;2023-03-13T00:22:52;101885.06;;;-3.58;89.07
66703;BME280;60933;46.398;-63.798;2023-03-13T00:25:18;101876.56;;;-3.60;88.94
66703;BME280;60933;46.398;-63.798;2023-03-13T00:27:44;101889.03;;;-3.63;88.88
66703;BME280;60933;46.398;-63.798;2023-03-13T00:30:10;101884.75;;;-3.64;89.46
66703;BME280;60933;46.398;-63.798;2023-03-13T00:32:44;101887.09;;;-3.68;89.02
66703;BME280;60933;46.398;-63.798;2023-03-13T00:35:12;101890.34;;;-3.70;89.62
66703;BME280;60933;46.398;-63.798;2023-03-13T00:37:38;101886.00;;;-3.73;89.65
66703;BME280;60933;46.398;-63.798;2023-03-13T00:40:05;101885.06;;;-3.75;89.71
66703;BME280;60933;46.398;-63.798;2023-03-13T00:42:32;101887.56;;;-3.75;89.55
66703;BME280;60933;46.398;-63.798;2023-03-13T00:44:59;101874.75;;;-3.79;89.68
66703;BME280;60933;46.398;-63.798;2023-03-13T00:47:25;101860.75;;;-3.89;89.94
66703;BME280;60933;46.398;-63.798;2023-03-13T00:49:51;101876.16;;;-3.85;90.11
66703;BME280;60933;46.398;-63.798;2023-03-13T00:52:17;101887.91;;;-3.85;89.95
66703;BME280;60933;46.398;-63.798;2023-03-13T00:54:43;101878.41;;;-3.89;89.83
66703;BME280;60933;46.398;-63.798;2023-03-13T00:57:09;101891.81;;;-3.90;89.96
66703;BME280;60933;46.398;-63.798;2023-03-13T00:59:35;101890.13;;;-3.91;90.51
66703;BME280;60933;46.398;-63.798;2023-03-13T01:02:01;101894.97;;;-3.94;90.25
66703;BME280;60933;46.398;-63.798;2023-03-13T01:04:27;101883.94;;;-3.97;90.63
66703;BME280;60933;46.398;-63.798;2023-03-13T01:06:56;101883.06;;;-3.97;90.41
66703;BME280;60933;46.398;-63.798;2023-03-13T01:09:22;101878.63;;;-4.01;90.54
66703;BME280;60933;46.398;-63.798;2023-03-13T01:11:48;101873.44;;;-4.04;90.81
66703;BME280;60933;46.398;-63.798;2023-03-13T01:14:17;101879.22;;;-4.07;90.89
66703;BME280;60933;46.398;-63.798;2023-03-13T01:16:43;101874.94;;;-4.08;90.51
66703;BME280;60933;46.398;-63.798;2023-03-13T01:19:12;101873.13;;;-4.10;90.75
66703;BME280;60933;46.398;-63.798;2023-03-13T01:21:39;101869.47;;;-4.16;90.96
66703;BME280;60933;46.398;-63.798;2023-03-13T01:24:06;101872.88;;;-4.15;90.94
66703;BME280;60933;46.398;-63.798;2023-03-13T01:26:32;101874.44;;;-4.17;90.66
66703;BME280;60933;46.398;-63.798;2023-03-13T01:28:58;101860.81;;;-4.21;91.25
66703;BME280;60933;46.398;-63.798;2023-03-13T01:31:29;101861.59;;;-4.22;91.16
66703;BME280;60933;46.398;-63.798;2023-03-13T01:33:57;101861.34;;;-4.26;90.80
66703;BME280;60933;46.398;-63.798;2023-03-13T01:36:24;101869.53;;;-4.31;90.91
66703;BME280;60933;46.398;-63.798;2023-03-13T01:38:54;101866.75;;;-4.35;90.78
66703;BME280;60933;46.398;-63.798;2023-03-13T01:41:22;101870.66;;;-4.40;90.84
66703;BME280;60933;46.398;-63.798;2023-03-13T01:43:49;101859.47;;;-4.46;90.76
66703;BME280;60933;46.398;-63.798;2023-03-13T01:46:20;101861.75;;;-4.50;90.55
66703;BME280;60933;46.398;-63.798;2023-03-13T01:49:04;101855.59;;;-4.55;90.52
66703;BME280;60933;46.398;-63.798;2023-03-13T01:51:43;101853.59;;;-4.61;89.97
66703;BME280;60933;46.398;-63.798;2023-03-13T01:54:23;101855.97;;;-4.64;90.44
66703;BME280;60933;46.398;-63.798;2023-03-13T01:56:50;101847.25;;;-4.69;90.28
66703;BME280;60933;46.398;-63.798;2023-03-13T01:59:22;101857.19;;;-4.72;90.57
66703;BME280;60933;46.398;-63.798;2023-03-13T02:01:50;101847.69;;;-4.77;90.13
66703;BME280;60933;46.398;-63.798;2023-03-13T02:04:19;101851.69;;;-4.80;90.66
66703;BME280;60933;46.398;-63.798;2023-03-13T02:06:50;101854.06;;;-4.83;90.28
66703;BME280;60933;46.398;-63.798;2023-03-13T02:09:20;101861.44;;;-4.86;90.32
66703;BME280;60933;46.398;-63.798;2023-03-13T02:12:09;101861.09;;;-4.93;90.38
66703;BME280;60933;46.398;-63.798;2023-03-13T02:14:38;101867.69;;;-4.95;90.15
66703;BME280;60933;46.398;-63.798;2023-03-13T02:17:06;101856.50;;;-5.00;90.35
66703;BME280;60933;46.398;-63.798;2023-03-13T02:24:51;101859.06;;;-5.13;89.92
66703;BME280;60933;46.398;-63.798;2023-03-13T02:27:18;101857.97;;;-5.18;90.17
66703;BME280;60933;46.398;-63.798;2023-03-13T02:29:44;101856.13;;;-5.21;90.16
66703;BME280;60933;46.398;-63.798;2023-03-13T02:32:11;101853.44;;;-5.24;90.31
66703;BME280;60933;46.398;-63.798;2023-03-13T02:34:39;101860.75;;;-5.29;89.98
66703;BME280;60933;46.398;-63.798;2023-03-13T02:37:07;101858.53;;;-5.37;89.96
66703;BME280;60933;46.398;-63.798;2023-03-13T02:39:42;101867.91;;;-5.35;89.64
66703;BME280;60933;46.398;-63.798;2023-03-13T02:42:12;101868.69;;;-5.36;90.31
66703;BME280;60933;46.398;-63.798;2023-03-13T02:44:40;101871.91;;;-5.38;89.86
66703;BME280;60933;46.398;-63.798;2023-03-13T02:47:06;101880.06;;;-5.43;90.11
66703;BME280;60933;46.398;-63.798;2023-03-13T02:49:34;101868.06;;;-5.47;90.11
66703;BME280;60933;46.398;-63.798;2023-03-13T02:52:15;101878.81;;;-5.49;90.15
66703;BME280;60933;46.398;-63.798;2023-03-13T02:54:44;101876.03;;;-5.54;90.01
66703;BME280;60933;46.398;-63.798;2023-03-13T02:57:12;101884.47;;;-5.53;90.25
66703;BME280;60933;46.398;-63.798;2023-03-13T02:59:38;101879.16;;;-5.58;90.04
66703;BME280;60933;46.398;-63.798;2023-03-13T03:02:04;101880.78;;;-5.59;90.06
66703;BME280;60933;46.398;-63.798;2023-03-13T03:04:30;101873.84;;;-5.63;90.78
66703;BME280;60933;46.398;-63.798;2023-03-13T03:06:56;101882.16;;;-5.64;90.32
66703;BME280;60933;46.398;-63.798;2023-03-13T03:09:22;101886.16;;;-5.67;90.47
66703;BME280;60933;46.398;-63.798;2023-03-13T03:11:49;101890.31;;;-5.68;90.69
66703;BME280;60933;46.398;-63.798;2023-03-13T03:14:15;101885.09;;;-5.71;90.38
66703;BME280;60933;46.398;-63.798;2023-03-13T03:16:42;101889.16;;;-5.73;90.74
66703;BME280;60933;46.398;-63.798;2023-03-13T03:19:08;101885.50;;;-5.78;90.56
66703;BME280;60933;46.398;-63.798;2023-03-13T03:21:35;101890.34;;;-5.81;90.27
66703;BME280;60933;46.398;-63.798;2023-03-13T03:24:02;101888.34;;;-5.87;90.60
66703;BME280;60933;46.398;-63.798;2023-03-13T03:26:28;101886.31;;;-5.93;90.62
66703;BME280;60933;46.398;-63.798;2023-03-13T03:28:54;101885.09;;;-5.99;90.21
66703;BME280;60933;46.398;-63.798;2023-03-13T03:31:20;101883.97;;;-6.05;90.39
66703;BME280;60933;46.398;-63.798;2023-03-13T03:33:46;101887.16;;;-6.07;90.26
66703;BME280;60933;46.398;-63.798;2023-03-13T03:36:18;101879.25;;;-6.13;90.32
66703;BME280;60933;46.398;-63.798;2023-03-13T03:38:45;101884.94;;;-6.16;89.94
66703;BME280;60933;46.398;-63.798;2023-03-13T03:41:12;101893.94;;;-6.20;90.05
66703;BME280;60933;46.398;-63.798;2023-03-13T03:43:39;101887.75;;;-6.25;90.36
66703;BME280;60933;46.398;-63.798;2023-03-13T03:46:06;101897.59;;;-6.28;90.00
66703;BME280;60933;46.398;-63.798;2023-03-13T03:48:32;101892.41;;;-6.31;90.03
66703;BME280;60933;46.398;-63.798;2023-03-13T03:50:58;101893.84;;;-6.34;90.36
66703;BME280;60933;46.398;-63.798;2023-03-13T03:53:25;101888.63;;;-6.38;90.29
66703;BME280;60933;46.398;-63.798;2023-03-13T03:55:51;101887.78;;;-6.38;89.89
66703;BME280;60933;46.398;-63.798;2023-03-13T03:58:17;101883.44;;;-6.41;89.99
66703;BME280;60933;46.398;-63.798;2023-03-13T04:00:44;101885.06;;;-6.41;90.35
66703;BME280;60933;46.398;-63.798;2023-03-13T04:03:11;101875.59;;;-6.45;90.23
66703;BME280;60933;46.398;-63.798;2023-03-13T04:05:37;101877.34;;;-6.44;90.44
66703;BME280;60933;46.398;-63.798;2023-03-13T04:08:03;101877.13;;;-6.47;90.57
66703;BME280;60933;46.398;-63.798;2023-03-13T04:10:29;101879.44;;;-6.50;90.76
66703;BME280;60933;46.398;-63.798;2023-03-13T04:12:55;101885.28;;;-6.52;90.55
66703;BME280;60933;46.398;-63.798;2023-03-13T04:15:21;101891.06;;;-6.53;90.64
66703;BME280;60933;46.398;-63.798;2023-03-13T04:17:47;101891.84;;;-6.54;90.60
66703;BME280;60933;46.398;-63.798;2023-03-13T04:20:13;101890.94;;;-6.54;90.69
66703;BME280;60933;46.398;-63.798;2023-03-13T04:22:40;101891.84;;;-6.54;90.76
66703;BME280;60933;46.398;-63.798;2023-03-13T04:25:07;101891.84;;;-6.54;90.89
66703;BME280;60933;46.398;-63.798;2023-03-13T04:27:33;101893.56;;;-6.53;91.26
66703;BME280;60933;46.398;-63.798;2023-03-13T04:30:00;101893.56;;;-6.53;91.16
66703;BME280;60933;46.398;-63.798;2023-03-13T04:32:26;101889.31;;;-6.54;91.11
66703;BME280;60933;46.398;-63.798;2023-03-13T04:34:52;101885.06;;;-6.55;91.14
66703;BME280;60933;46.398;-63.798;2023-03-13T04:37:18;101898.59;;;-6.53;91.20
66703;BME280;60933;46.398;-63.798;2023-03-13T04:39:44;101898.59;;;-6.53;91.26
66703;BME280;60933;46.398;-63.798;2023-03-13T04:42:10;101893.56;;;-6.53;91.31
66703;BME280;60933;46.398;-63.798;2023-03-13T04:44:36;101883.13;;;-6.59;91.63
66703;BME280;60933;46.398;-63.798;2023-03-13T04:47:03;101900.34;;;-6.52;91.82
66703;BME280;60933;46.398;-63.798;2023-03-13T04:49:29;101898.59;;;-6.53;92.16
66703;BME280;60933;46.398;-63.798;2023-03-13T04:51:56;101889.41;;;-6.52;91.70
66703;BME280;60933;46.398;-63.798;2023-03-13T04:54:22;101881.88;;;-6.52;91.74
66703;BME280;60933;46.398;-63.798;2023-03-13T04:56:48;101891.06;;;-6.53;92.13
66703;BME280;60933;46.398;-63.798;2023-03-13T04:59:14;101887.66;;;-6.53;92.29
66703;BME280;60933;46.398;-63.798;2023-03-13T05:01:41;101880.03;;;-6.55;92.22
66703;BME280;60933;46.398;-63.798;2023-03-13T05:04:08;101888.56;;;-6.53;92.06
66703;BME280;60933;46.398;-63.798;2023-03-13T05:06:35;101889.31;;;-6.54;92.36
66703;BME280;60933;46.398;-63.798;2023-03-13T05:09:01;101886.81;;;-6.54;92.37
66703;BME280;60933;46.398;-63.798;2023-03-13T05:11:27;101883.13;;;-6.59;92.54
66703;BME280;60933;46.398;-63.798;2023-03-13T05:13:54;101892.59;;;-6.55;92.53
66703;BME280;60933;46.398;-63.798;2023-03-13T05:16:20;101896.78;;;-6.55;92.52
66703;BME280;60933;46.398;-63.798;2023-03-13T05:18:46;101892.81;;;-6.52;92.83
66703;BME280;60933;46.398;-63.798;2023-03-13T05:21:12;101899.53;;;-6.50;93.01
66703;BME280;60933;46.398;-63.798;2023-03-13T05:23:38;101898.59;;;-6.53;92.68
66703;BME280;60933;46.398;-63.798;2023-03-13T05:26:04;101900.53;;;-6.48;92.99
66703;BME280;60933;46.398;-63.798;2023-03-13T05:28:30;101901.28;;;-6.49;93.50
66703;BME280;60933;46.398;-63.798;2023-03-13T05:30:56;101910.78;;;-6.45;92.92
66703;BME280;60933;46.398;-63.798;2023-03-13T05:33:23;101915.03;;;-6.44;93.30
66703;BME280;60933;46.398;-63.798;2023-03-13T05:35:49;101913.28;;;-6.45;93.09
66703;BME280;60933;46.398;-63.798;2023-03-13T05:38:15;101909.13;;;-6.45;93.24
66703;BME280;60933;46.398;-63.798;2023-03-13T05:40:41;101902.25;;;-6.47;93.45
66703;BME280;60933;46.398;-63.798;2023-03-13T05:43:07;101905.53;;;-6.48;93.17
66703;BME280;60933;46.398;-63.798;2023-03-13T05:45:33;101901.28;;;-6.49;93.41
66703;BME280;60933;46.398;-63.798;2023-03-13T05:47:59;101900.44;;;-6.50;93.55
66703;BME280;60933;46.398;-63.798;2023-03-13T05:50:25;101885.16;;;-6.53;93.69
66703;BME280;60933;46.398;-63.798;2023-03-13T05:52:51;101886.91;;;-6.52;93.70
66703;BME280;60933;46.398;-63.798;2023-03-13T05:55:18;101891.25;;;-6.49;93.50
66703;BME280;60933;46.398;-63.798;2023-03-13T05:57:47;101893.75;;;-6.49;93.47
66703;BME280;60933;46.398;-63.798;2023-03-13T06:00:15;101898.69;;;-6.51;93.64
66703;BME280;60933;46.398;-63.798;2023-03-13T06:02:42;101889.22;;;-6.55;93.86
66703;BME280;60933;46.398;-63.798;2023-03-13T06:05:09;101891.63;;;-6.57;93.61
66703;BME280;60933;46.398;-63.798;2023-03-13T06:07:35;101883.78;;;-6.61;93.69
66703;BME280;60933;46.398;-63.798;2023-03-13T06:10:02;101879.28;;;-6.67;94.04
66703;BME280;60933;46.398;-63.798;2023-03-13T06:12:28;101878.22;;;-6.71;93.52
66703;BME280;60933;46.398;-63.798;2023-03-13T06:14:54;101879.91;;;-6.70;93.36
66703;BME280;60933;46.398;-63.798;2023-03-13T06:17:20;101887.38;;;-6.71;93.46
66703;BME280;60933;46.398;-63.798;2023-03-13T06:19:46;101883.69;;;-6.76;93.45
66703;BME280;60933;46.398;-63.798;2023-03-13T06:22:15;101874.13;;;-6.82;93.55
66703;BME280;60933;46.398;-63.798;2023-03-13T06:24:41;101889.41;;;-6.79;93.31
66703;BME280;60933;46.398;-63.798;2023-03-13T06:27:09;101880.69;;;-6.84;93.67
66703;BME280;60933;46.398;-63.798;2023-03-13T06:29:35;101888.13;;;-6.86;93.43
66703;BME280;60933;46.398;-63.798;2023-03-13T06:32:01;101881.28;;;-6.88;93.49
66703;BME280;60933;46.398;-63.798;2023-03-13T06:34:27;101884.25;;;-6.94;93.77
66703;BME280;60933;46.398;-63.798;2023-03-13T06:36:53;101884.03;;;-6.97;93.73
66703;BME280;60933;46.398;-63.798;2023-03-13T06:39:19;101874.66;;;-7.00;93.04
66703;BME280;60933;46.398;-63.798;2023-03-13T06:41:45;101877.09;;;-7.01;93.43
66703;BME280;60933;46.398;-63.798;2023-03-13T06:44:11;101868.19;;;-7.09;93.36
66703;BME280;60933;46.398;-63.798;2023-03-13T06:46:37;101871.84;;;-7.04;93.51
66703;BME280;60933;46.398;-63.798;2023-03-13T06:49:03;101879.38;;;-7.04;93.69
66703;BME280;60933;46.398;-63.798;2023-03-13T06:51:31;101875.94;;;-7.06;93.65
66703;BME280;60933;46.398;-63.798;2023-03-13T06:53:57;101879.13;;;-7.09;93.37
66703;BME280;60933;46.398;-63.798;2023-03-13T06:56:23;101868.88;;;-7.12;93.54
66703;BME280;60933;46.398;-63.798;2023-03-13T06:58:49;101867.03;;;-7.14;93.36
66703;BME280;60933;46.398;-63.798;2023-03-13T07:01:16;101866.06;;;-7.17;93.72
66703;BME280;60933;46.398;-63.798;2023-03-13T07:03:43;101866.50;;;-7.22;93.41
66703;BME280;60933;46.398;-63.798;2023-03-13T07:06:10;101873.94;;;-7.24;93.19
66703;BME280;60933;46.398;-63.798;2023-03-13T07:08:37;101870.16;;;-7.31;93.59
66703;BME280;60933;46.398;-63.798;2023-03-13T07:11:03;101874.97;;;-7.34;93.15
66703;BME280;60933;46.398;-63.798;2023-03-13T07:13:30;101881.53;;;-7.36;93.20
66703;BME280;60933;46.398;-63.798;2023-03-13T07:16:01;101876.22;;;-7.40;93.24
66703;BME280;60933;46.398;-63.798;2023-03-13T07:18:29;101857.84;;;-7.53;93.41
66703;BME280;60933;46.398;-63.798;2023-03-13T07:20:57;101876.66;;;-7.46;93.34
66703;BME280;60933;46.398;-63.798;2023-03-13T07:23:25;101878.84;;;-7.51;93.02
66703;BME280;60933;46.398;-63.798;2023-03-13T07:26:06;101874.41;;;-7.55;93.23
66703;BME280;60933;46.398;-63.798;2023-03-13T07:28:32;101867.47;;;-7.59;93.13
66703;BME280;60933;46.398;-63.798;2023-03-13T07:31:07;101871.28;;;-7.64;92.98
66703;BME280;60933;46.398;-63.798;2023-03-13T07:33:35;101885.34;;;-7.66;93.09
66703;BME280;60933;46.398;-63.798;2023-03-13T07:36:01;101885.06;;;-7.71;92.72
66703;BME280;60933;46.398;-63.798;2023-03-13T07:38:27;101894.66;;;-7.77;92.65
66703;BME280;60933;46.398;-63.798;2023-03-13T07:40:55;101879.00;;;-7.86;92.42
66703;BME280;60933;46.398;-63.798;2023-03-13T07:43:21;101892.41;;;-7.86;92.76
66703;BME280;60933;46.398;-63.798;2023-03-13T07:46:02;101888.81;;;-7.89;92.69
66703;BME280;60933;46.398;-63.798;2023-03-13T07:48:31;101890.22;;;-7.93;92.71
66703;BME280;60933;46.398;-63.798;2023-03-13T07:50:57;101889.16;;;-7.97;92.87
66703;BME280;60933;46.398;-63.798;2023-03-13T07:53:24;101898.09;;;-8.00;92.63
66703;BME280;60933;46.398;-63.798;2023-03-13T07:55:57;101900.38;;;-8.03;92.25
66703;BME280;60933;46.398;-63.798;2023-03-13T07:58:25;101900.19;;;-8.06;92.28
66703;BME280;60933;46.398;-63.798;2023-03-13T08:00:52;101899.97;;;-8.09;92.02
66703;BME280;60933;46.398;-63.798;2023-03-13T08:03:18;101903.22;;;-8.11;92.29
66703;BME280;60933;46.398;-63.798;2023-03-13T08:05:44;101898.00;;;-8.14;91.92
66703;BME280;60933;46.398;-63.798;2023-03-13T08:08:10;101896.16;;;-8.16;91.93
66703;BME280;60933;46.398;-63.798;2023-03-13T08:10:36;101900.84;;;-8.21;92.38
66703;BME280;60933;46.398;-63.798;2023-03-13T08:13:02;101907.47;;;-8.21;91.80
66703;BME280;60933;46.398;-63.798;2023-03-13T08:15:29;101910.66;;;-8.24;91.61
66703;BME280;60933;46.398;-63.798;2023-03-13T08:17:54;101912.16;;;-8.26;92.26
66703;BME280;60933;46.398;-63.798;2023-03-13T08:20:21;101911.22;;;-8.28;91.96
66703;BME280;60933;46.398;-63.798;2023-03-13T08:22:48;101911.75;;;-8.32;92.22
66703;BME280;60933;46.398;-63.798;2023-03-13T08:25:16;101909.78;;;-8.36;91.84
66703;BME280;60933;46.398;-63.798;2023-03-13T08:27:42;101912.81;;;-8.40;91.82
66703;BME280;60933;46.398;-63.798;2023-03-13T08:30:09;101905.88;;;-8.45;91.75
66703;BME280;60933;46.398;-63.798;2023-03-13T08:32:35;101914.84;;;-8.48;91.53
66703;BME280;60933;46.398;-63.798;2023-03-13T08:35:02;101912.84;;;-8.52;91.65
66703;BME280;60933;46.398;-63.798;2023-03-13T08:37:29;101909.81;;;-8.60;91.39
66703;BME280;60933;46.398;-63.798;2023-03-13T08:39:55;101913.94;;;-8.61;90.77
66703;BME280;60933;46.398;-63.798;2023-03-13T08:42:21;101920.78;;;-8.58;91.14
66703;BME280;60933;46.398;-63.798;2023-03-13T08:44:48;101923.94;;;-8.61;90.86
66703;BME280;60933;46.398;-63.798;2023-03-13T08:47:14;101922.09;;;-8.63;90.65
66703;BME280;60933;46.398;-63.798;2023-03-13T08:49:43;101921.66;;;-8.69;90.23
66703;BME280;60933;46.398;-63.798;2023-03-13T08:52:09;101926.44;;;-8.72;90.29
66703;BME280;60933;46.398;-63.798;2023-03-13T08:54:35;101909.56;;;-8.87;90.56
66703;BME280;60933;46.398;-63.798;2023-03-13T08:57:01;101917.41;;;-8.82;89.73
66703;BME280;60933;46.398;-63.798;2023-03-13T08:59:27;101933.94;;;-8.84;89.80
66703;BME280;60933;46.398;-63.798;2023-03-13T09:01:53;101920.13;;;-8.91;90.21
66703;BME280;60933;46.398;-63.798;2023-03-13T09:04:19;101925.88;;;-8.92;89.83
66703;BME280;60933;46.398;-63.798;2023-03-13T09:06:45;101926.53;;;-8.95;89.54
66703;BME280;60933;46.398;-63.798;2023-03-13T09:09:13;101927.19;;;-8.97;89.53
66703;BME280;60933;46.398;-63.798;2023-03-13T09:11:39;101928.59;;;-9.01;89.60
66703;BME280;60933;46.398;-63.798;2023-03-13T09:14:06;101927.59;;;-9.03;89.05
66703;BME280;60933;46.398;-63.798;2023-03-13T09:16:33;101938.34;;;-9.04;89.55
66703;BME280;60933;46.398;-63.798;2023-03-13T09:18:59;101928.25;;;-9.05;89.03
66703;BME280;60933;46.398;-63.798;2023-03-13T09:21:28;101925.59;;;-9.07;89.15
66703;BME280;60933;46.398;-63.798;2023-03-13T09:23:55;101927.00;;;-9.11;88.85
66703;BME280;60933;46.398;-63.798;2023-03-13T09:26:22;101935.16;;;-9.13;88.98
66703;BME280;60933;46.398;-63.798;2023-03-13T09:28:48;101939.31;;;-9.14;88.56
66703;BME280;60933;46.398;-63.798;2023-03-13T09:31:18;101941.06;;;-9.13;88.16
66703;BME280;60933;46.398;-63.798;2023-03-13T09:33:45;101941.06;;;-9.13;88.27
66703;BME280;60933;46.398;-63.798;2023-03-13T09:36:12;101935.16;;;-9.13;88.50
66703;BME280;60933;46.398;-63.798;2023-03-13T09:38:38;101927.56;;;-9.15;88.69
66703;BME280;60933;46.398;-63.798;2023-03-13T09:41:19;101924.16;;;-9.15;88.77
66703;BME280;60933;46.398;-63.798;2023-03-13T09:44:10;101920.56;;;-9.19;87.79
66703;BME280;60933;46.398;-63.798;2023-03-13T09:46:43;101931.22;;;-9.22;88.12
66703;BME280;60933;46.398;-63.798;2023-03-13T09:52:14;101932.41;;;-9.28;87.95
66703;BME280;60933;46.398;-63.798;2023-03-13T09:55:00;101948.38;;;-9.26;87.69
66703;BME280;60933;46.398;-63.798;2023-03-13T09:57:52;101946.41;;;-9.30;87.36
66703;BME280;60933;46.398;-63.798;2023-03-13T10:00:30;101946.91;;;-9.34;87.33
66703;BME280;60933;46.398;-63.798;2023-03-13T10:03:22;101953.91;;;-9.30;86.67
66703;BME280;60933;46.398;-63.798;2023-03-13T10:06:03;101958.81;;;-9.32;86.83
66703;BME280;60933;46.398;-63.798;2023-03-13T10:08:32;101938.31;;;-9.38;86.51
66703;BME280;60933;46.398;-63.798;2023-03-13T10:11:15;101955.31;;;-9.34;86.99
66703;BME280;60933;46.398;-63.798;2023-03-13T10:16:25;101948.09;;;-9.41;86.67
66703;BME280;60933;46.398;-63.798;2023-03-13T10:18:54;101959.97;;;-9.39;87.01
66703;BME280;60933;46.398;-63.798;2023-03-13T10:21:24;101956.47;;;-9.41;87.05
66703;BME280;60933;46.398;-63.798;2023-03-13T10:23:56;101945.25;;;-9.46;86.68
66703;BME280;60933;46.398;-63.798;2023-03-13T10:26:31;101961.13;;;-9.45;86.16
66703;BME280;60933;46.398;-63.798;2023-03-13T10:29:19;101959.16;;;-9.49;86.15
66703;BME280;60933;46.398;-63.798;2023-03-13T10:32:01;101963.41;;;-9.48;86.33
66703;BME280;60933;46.398;-63.798;2023-03-13T10:34:59;101973.00;;;-9.43;86.39
66703;BME280;60933;46.398;-63.798;2023-03-13T10:37:28;101969.63;;;-9.43;85.64
66703;BME280;60933;46.398;-63.798;2023-03-13T10:39:54;101988.22;;;-9.40;85.51
66703;BME280;60933;46.398;-63.798;2023-03-13T10:42:37;101985.84;;;-9.38;85.35
66703;BME280;60933;46.398;-63.798;2023-03-13T10:45:15;101995.97;;;-9.36;86.05
66703;BME280;60933;46.398;-63.798;2023-03-13T10:47:42;102003.69;;;-9.33;85.56
66703;BME280;60933;46.398;-63.798;2023-03-13T10:50:21;102005.53;;;-9.31;85.31
66703;BME280;60933;46.398;-63.798;2023-03-13T10:52:48;102002.88;;;-9.22;85.86
66703;BME280;60933;46.398;-63.798;2023-03-13T10:55:20;102012.50;;;-9.16;84.81
66703;BME280;60933;46.398;-63.798;2023-03-13T10:58:03;102014.56;;;-9.11;85.67
66703;BME280;60933;46.398;-63.798;2023-03-13T11:00:37;102011.56;;;-9.07;84.85
66703;BME280;60933;46.398;-63.798;2023-03-13T11:03:05;102008.66;;;-9.01;85.52
66703;BME280;60933;46.398;-63.798;2023-03-13T11:05:40;102013.22;;;-8.95;85.80
66703;BME280;60933;46.398;-63.798;2023-03-13T11:08:43;102008.56;;;-8.91;85.55
66703;BME280;60933;46.398;-63.798;2023-03-13T11:11:19;102015.75;;;-8.83;85.18
66703;BME280;60933;46.398;-63.798;2023-03-13T11:13:45;102006.75;;;-8.81;85.67
66703;BME280;60933;46.398;-63.798;2023-03-13T11:16:23;102008.19;;;-8.73;85.65
66703;BME280;60933;46.398;-63.798;2023-03-13T11:30:18;102016.63;;;-8.25;85.77
66703;BME280;60933;46.398;-63.798;2023-03-13T11:32:54;102021.75;;;-8.12;86.08
66703;BME280;60933;46.398;-63.798;2023-03-13T11:38:01;102031.59;;;-7.91;86.33
66703;BME280;60933;46.398;-63.798;2023-03-13T11:40:34;102030.69;;;-7.80;86.60
66703;BME280;60933;46.398;-63.798;2023-03-13T11:46:20;102013.78;;;-7.58;86.17
66703;BME280;60933;46.398;-63.798;2023-03-13T11:48:45;102021.72;;;-7.40;85.82
66703;BME280;60933;46.398;-63.798;2023-03-13T11:56:26;102022.00;;;-6.98;85.14
66703;BME280;60933;46.398;-63.798;2023-03-13T11:59:02;102017.94;;;-6.85;85.68
66703;BME280;60933;46.398;-63.798;2023-03-13T12:02:17;102020.09;;;-6.64;85.43
66703;BME280;60933;46.398;-63.798;2023-03-13T12:04:50;102027.78;;;-6.49;85.29
66703;BME280;60933;46.398;-63.798;2023-03-13T12:10:23;102035.97;;;-6.13;86.02
66703;BME280;60933;46.398;-63.798;2023-03-13T12:15:43;102044.81;;;-5.78;86.68
66703;BME280;60933;46.398;-63.798;2023-03-13T12:18:26;102056.91;;;-5.59;87.32
66703;BME280;60933;46.398;-63.798;2023-03-13T12:27:01;102051.53;;;-5.10;87.50
66703;BME280;60933;46.398;-63.798;2023-03-13T12:30:02;102060.16;;;-4.91;86.68
66703;BME280;60933;46.398;-63.798;2023-03-13T12:33:14;102059.81;;;-4.69;87.09
66703;BME280;60933;46.398;-63.798;2023-03-13T12:35:45;102055.38;;;-4.58;86.31
66703;BME280;60933;46.398;-63.798;2023-03-13T12:38:23;102055.72;;;-4.52;83.48
66703;BME280;60933;46.398;-63.798;2023-03-13T12:43:28;102064.97;;;-4.37;82.18
66703;BME280;60933;46.398;-63.798;2023-03-13T12:56:38;102065.94;;;-4.05;79.19
66703;BME280;60933;46.398;-63.798;2023-03-13T12:59:47;102080.25;;;-3.89;78.50
66703;BME280;60933;46.398;-63.798;2023-03-13T13:02:21;102080.25;;;-3.74;76.56
66703;BME280;60933;46.398;-63.798;2023-03-13T13:04:49;102073.34;;;-3.62;77.85
66703;BME280;60933;46.398;-63.798;2023-03-13T13:10:15;102074.75;;;-3.36;77.81
66703;BME280;60933;46.398;-63.798;2023-03-13T13:12:47;102077.31;;;-3.19;78.12
66703;BME280;60933;46.398;-63.798;2023-03-13T13:15:32;102071.31;;;-3.05;79.14
66703;BME280;60933;46.398;-63.798;2023-03-13T13:23:36;102073.06;;;-2.54;80.93
66703;BME280;60933;46.398;-63.798;2023-03-13T13:28:51;102074.13;;;-2.16;82.08
66703;BME280;60933;46.398;-63.798;2023-03-13T13:34:54;102075.88;;;-1.79;81.23
66703;BME280;60933;46.398;-63.798;2023-03-13T13:39:48;102071.28;;;-1.50;81.21
66703;BME280;60933;46.398;-63.798;2023-03-13T13:45:21;102061.22;;;-1.10;81.87
66703;BME280;60933;46.398;-63.798;2023-03-13T13:47:51;102059.97;;;-1.01;81.13
66703;BME280;60933;46.398;-63.798;2023-03-13T13:50:36;102060.84;;;-0.81;81.09
66703;BME280;60933;46.398;-63.798;2023-03-13T13:55:46;102058.00;;;-0.47;81.08
66703;BME280;60933;46.398;-63.798;2023-03-13T14:00:44;102067.56;;;-0.21;78.75
66703;BME280;60933;46.398;-63.798;2023-03-13T14:03:23;102062.91;;;-0.10;77.79
66703;BME280;60933;46.398;-63.798;2023-03-13T14:05:54;102060.56;;;-0.05;77.10